Portada
METAR-TAF:

METAR-TAF

Aeropuertos :

Germiston, Sudáfrica

latitud: 26-14-33S, longitud: 028-09-04E, altitud: 1671 m

Observación

El informe se hizo hace 16 horas y 59 minutos, a las 14:00 UTC
Viento 10 kt del suroeste
Temperatura 18°C
Humedad 12%
Presión 1028 hPa
Visibilidad 10 km o más
sin nubes por debajo de 1500 m y sin presencia de cumulonimbus.

METAR: FAGM 051400Z 22010KT CAVOK 18/M12 Q1028

Hora: 08:59 (06:59 UTC)


TAF: falta

Observaciones y pronósticos meteorológicos de más de 4000 aeropuertos (mensajes METAR y TAF).

Los puntos amarillos y rojos representan las estaciones disponibles.

Ponga el ratón en el punto deseado para ver el nombre de la estación.

Haga clic para ver las observaciones y los pronósticos meteorológicos.

Para cambiar el mapa : haga clic en los botones verdes con una cruz de color negro para hacer un zoom, en el botón verde con un guión para alejar o en las flechas verdes para mapas adyacentes.


METAR-TAF: